Time;durP1;ratioP1;P1;durP2;ratioP2;P2;SDS_P1;SDS_P2;PMS_P1;PMS_P2;Temp;Humidity;BMP_temperature;BMP_pressure;BME280_temperature;BME280_humidity;BME280_pressure;Samples;Min_cycle;Max_cycle;Signal;HPM_P1;HPM_P2
2021/01/05 00:01:14;;;;;;;9.60;4.03;;;3.60;98.30;;;;;;5150725;23;20283;-83
2021/01/05 00:03:17;;;;;;;8.68;4.68;;;3.60;98.30;;;;;;5149454;23;20265;-82
2021/01/05 00:05:20;;;;;;;8.02;4.32;;;3.60;98.30;;;;;;5142358;23;20206;-82
2021/01/05 00:07:22;;;;;;;8.57;4.28;;;3.50;98.30;;;;;;5149657;23;20962;-82
2021/01/05 00:09:24;;;;;;;5.60;4.22;;;3.60;98.30;;;;;;5149793;23;20206;-83
2021/01/05 00:11:26;;;;;;;7.37;4.33;;;3.50;98.30;;;;;;5150264;23;20260;-83
2021/01/05 00:13:32;;;;;;;5.90;4.60;;;3.50;98.30;;;;;;5141591;23;20769;-82
2021/01/05 00:15:35;;;;;;;5.53;3.90;;;3.60;98.30;;;;;;5149945;23;20202;-83
2021/01/05 00:17:42;;;;;;;9.43;5.00;;;3.60;98.30;;;;;;5149197;23;20457;-83
2021/01/05 00:19:49;;;;;;;9.25;4.22;;;3.60;98.30;;;;;;5141634;23;20448;-82
2021/01/05 00:21:53;;;;;;;8.80;4.20;;;3.60;98.30;;;;;;5150306;23;20241;-83
2021/01/05 00:23:57;;;;;;;9.27;5.70;;;3.60;98.30;;;;;;5149840;23;20223;-82
2021/01/05 00:26:00;;;;;;;9.05;4.40;;;3.60;98.30;;;;;;5151449;23;20478;-83
2021/01/05 00:28:02;;;;;;;5.40;4.30;;;3.60;98.30;;;;;;5150525;23;20206;-83
2021/01/05 00:30:11;;;;;;;6.80;4.40;;;3.70;98.30;;;;;;5148449;23;20452;-82
2021/01/05 00:32:24;;;;;;;5.33;3.73;;;3.70;98.30;;;;;;5149084;23;20947;-83
2021/01/05 00:37:10;;;;;;;7.38;4.50;;;3.70;98.30;;;;;;5133134;23;20289;-83
2021/01/05 00:39:19;;;;;;;7.30;4.57;;;3.70;98.30;;;;;;5148835;23;20205;-82
2021/01/05 00:41:25;;;;;;;9.05;4.50;;;3.70;98.30;;;;;;5149456;23;20205;-82
2021/01/05 00:43:38;;;;;;;8.07;4.20;;;3.70;98.30;;;;;;5150069;23;20202;-82
2021/01/05 00:45:41;;;;;;;8.63;4.70;;;3.70;98.30;;;;;;5148472;23;20202;-83
2021/01/05 00:47:43;;;;;;;4.60;4.00;;;3.70;98.30;;;;;;5147541;23;20248;-83
2021/01/05 00:49:46;;;;;;;6.97;3.90;;;3.60;98.30;;;;;;5149435;23;20453;-83
2021/01/05 00:51:48;;;;;;;29.58;15.52;;;3.70;98.30;;;;;;5148384;23;20201;-83
2021/01/05 00:53:50;;;;;;;10.18;4.90;;;3.60;98.30;;;;;;5148363;23;20581;-83
2021/01/05 00:55:52;;;;;;;5.90;3.90;;;3.60;98.30;;;;;;5150483;23;20269;-83
2021/01/05 00:57:54;;;;;;;4.95;3.63;;;3.60;98.30;;;;;;5142199;23;20210;-83
2021/01/05 00:59:56;;;;;;;4.40;3.50;;;3.60;98.30;;;;;;5142115;23;20212;-83
2021/01/05 01:02:00;;;;;;;4.82;4.05;;;3.70;98.30;;;;;;5150028;23;20228;-82
2021/01/05 01:04:03;;;;;;;5.15;3.92;;;3.70;98.30;;;;;;5150976;23;20209;-83
2021/01/05 01:06:13;;;;;;;5.68;4.70;;;3.70;98.30;;;;;;5150815;23;20256;-82
2021/01/05 01:08:24;;;;;;;4.65;4.03;;;3.70;98.30;;;;;;5149873;23;20226;-82
2021/01/05 01:10:34;;;;;;;5.85;3.95;;;3.70;98.30;;;;;;5150031;23;20308;-82
2021/01/05 01:12:51;;;;;;;6.30;3.88;;;3.70;98.30;;;;;;5149724;23;20293;-82
2021/01/05 01:14:55;;;;;;;6.85;3.92;;;3.70;98.30;;;;;;5148919;23;20198;-82
2021/01/05 01:17:09;;;;;;;4.85;4.05;;;3.70;98.30;;;;;;5149948;23;20712;-83
2021/01/05 01:19:12;;;;;;;6.40;4.40;;;3.70;98.30;;;;;;5150371;23;20205;-82
2021/01/05 01:21:14;;;;;;;4.60;4.10;;;3.70;98.30;;;;;;5150459;23;20209;-84
2021/01/05 01:23:17;;;;;;;6.00;3.95;;;3.70;98.30;;;;;;5150571;23;20511;-82
2021/01/05 01:25:19;;;;;;;5.78;4.10;;;3.70;98.30;;;;;;5150917;23;20229;-83
2021/01/05 01:27:22;;;;;;;7.35;4.60;;;3.60;98.30;;;;;;5150444;23;20194;-82
2021/01/05 01:29:26;;;;;;;4.60;3.80;;;3.70;98.30;;;;;;5141461;23;20212;-83
2021/01/05 01:31:28;;;;;;;6.15;4.40;;;3.60;98.30;;;;;;5142089;23;20214;-82
2021/01/05 01:33:32;;;;;;;10.23;4.20;;;3.70;98.30;;;;;;5150170;23;20232;-82
2021/01/05 01:35:34;;;;;;;4.53;3.60;;;3.70;98.30;;;;;;5150349;23;20201;-83
2021/01/05 01:37:36;;;;;;;8.48;4.07;;;3.60;98.30;;;;;;5150035;23;20263;-83
2021/01/05 01:39:41;;;;;;;4.78;4.05;;;3.60;98.30;;;;;;5150703;23;20205;-82
2021/01/05 01:41:43;;;;;;;3.97;3.55;;;3.60;98.30;;;;;;5150328;23;20201;-83
2021/01/05 01:43:46;;;;;;;4.70;3.78;;;3.70;98.30;;;;;;5150042;23;20744;-82
2021/01/05 01:45:48;;;;;;;6.47;3.50;;;3.60;98.30;;;;;;5142178;23;20214;-83
2021/01/05 01:47:51;;;;;;;7.97;4.50;;;3.70;98.30;;;;;;5150750;23;20281;-83
2021/01/05 01:49:57;;;;;;;5.85;4.63;;;3.60;98.30;;;;;;5159270;23;20213;-83
2021/01/05 01:52:00;;;;;;;4.95;4.20;;;3.60;98.30;;;;;;5163723;23;20209;-83
2021/01/05 01:54:20;;;;;;;6.93;4.78;;;3.60;98.30;;;;;;5163761;23;20212;-83
2021/01/05 01:56:38;;;;;;;5.00;4.50;;;3.60;98.30;;;;;;5155159;23;20220;-82
2021/01/05 01:58:53;;;;;;;5.50;4.50;;;3.50;98.30;;;;;;5150827;23;20206;-82
2021/01/05 02:01:11;;;;;;;6.65;4.30;;;3.50;98.30;;;;;;5152281;23;20255;-82
2021/01/05 02:03:43;;;;;;;5.10;4.60;;;3.50;98.30;;;;;;5151449;23;20202;-82
2021/01/05 02:06:01;;;;;;;10.38;5.20;;;3.50;98.30;;;;;;5143154;23;20216;-82
2021/01/05 02:08:22;;;;;;;6.50;4.63;;;3.60;98.30;;;;;;5152170;23;20265;-82
2021/01/05 02:10:44;;;;;;;8.30;4.72;;;3.60;98.30;;;;;;5150741;23;20225;-82
2021/01/05 02:13:00;;;;;;;7.80;5.25;;;3.60;98.30;;;;;;5150733;23;20577;-83
2021/01/05 02:15:15;;;;;;;6.63;4.63;;;3.60;98.30;;;;;;5151585;23;20260;-82
2021/01/05 02:17:36;;;;;;;7.05;5.40;;;3.60;98.30;;;;;;5151376;23;20679;-82
2021/01/05 02:19:44;;;;;;;7.72;5.50;;;3.70;98.30;;;;;;5151197;23;20198;-82
2021/01/05 02:22:04;;;;;;;6.10;4.53;;;3.60;98.30;;;;;;5153425;23;20208;-83
2021/01/05 02:24:37;;;;;;;4.95;4.45;;;3.60;98.30;;;;;;5152945;23;20455;-82
2021/01/05 02:26:56;;;;;;;5.55;4.50;;;3.60;98.30;;;;;;5153067;23;20221;-83
2021/01/05 02:29:03;;;;;;;8.68;4.68;;;3.60;98.30;;;;;;5152084;23;20201;-82
2021/01/05 02:31:20;;;;;;;6.38;5.15;;;3.60;98.30;;;;;;5151983;23;20577;-82
2021/01/05 02:33:42;;;;;;;8.60;4.95;;;3.60;98.30;;;;;;5151673;23;20209;-81
2021/01/05 02:36:17;;;;;;;5.55;4.75;;;3.60;98.30;;;;;;5151908;23;20202;-81
2021/01/05 02:38:41;;;;;;;5.75;4.90;;;3.60;98.30;;;;;;5143503;23;20735;-82
2021/01/05 02:40:58;;;;;;;6.50;4.90;;;3.60;98.30;;;;;;5150817;23;20198;-83
2021/01/05 02:43:27;;;;;;;6.10;4.90;;;3.50;98.30;;;;;;5152399;23;20206;-82
2021/01/05 02:45:33;;;;;;;8.55;6.60;;;3.60;98.30;;;;;;5145526;23;20272;-82
2021/01/05 02:47:53;;;;;;;6.47;5.50;;;3.60;98.30;;;;;;5154537;23;20193;-82
2021/01/05 02:50:09;;;;;;;5.28;4.35;;;3.60;98.30;;;;;;5152683;23;20213;-82
2021/01/05 02:53:00;;;;;;;7.20;4.45;;;3.50;98.30;;;;;;5152496;23;20197;-82
2021/01/05 02:55:40;;;;;;;7.85;4.68;;;3.60;98.30;;;;;;5144323;23;20502;-82
2021/01/05 02:57:51;;;;;;;6.23;4.73;;;3.60;98.30;;;;;;5152069;23;20276;-82
2021/01/05 03:00:28;;;;;;;6.00;4.65;;;3.70;98.30;;;;;;5152545;23;20451;-82
2021/01/05 03:03:01;;;;;;;5.50;4.80;;;3.60;98.30;;;;;;5152188;23;20205;-82
2021/01/05 03:05:07;;;;;;;6.40;4.88;;;3.60;98.30;;;;;;5151321;23;20209;-82
2021/01/05 03:07:16;;;;;;;7.50;5.25;;;3.60;98.30;;;;;;5151202;23;20198;-82
2021/01/05 03:09:59;;;;;;;6.65;5.07;;;3.60;98.30;;;;;;5149511;23;20588;-82
2021/01/05 03:12:39;;;;;;;6.13;5.53;;;3.60;98.30;;;;;;5046078;23;20259;-82
2021/01/05 03:14:56;;;;;;;10.20;5.93;;;3.70;98.30;;;;;;5049771;23;20287;-82
2021/01/05 03:17:04;;;;;;;5.57;4.50;;;3.70;98.30;;;;;;5151497;23;20225;-82
2021/01/05 03:19:25;;;;;;;7.10;4.97;;;3.70;98.30;;;;;;5151119;23;20197;-82
2021/01/05 03:21:35;;;;;;;7.63;4.77;;;3.60;98.30;;;;;;5151923;23;20206;-82
2021/01/05 03:23:38;;;;;;;5.95;5.35;;;3.70;98.30;;;;;;5143421;23;20496;-81
2021/01/05 03:25:45;;;;;;;7.70;5.50;;;3.70;98.30;;;;;;5152033;23;20205;-82
2021/01/05 03:27:49;;;;;;;8.70;5.95;;;3.60;98.30;;;;;;5143502;23;20215;-81
2021/01/05 03:29:54;;;;;;;7.65;5.80;;;3.60;98.30;;;;;;5151409;23;20526;-82
2021/01/05 03:32:03;;;;;;;6.15;5.55;;;3.70;98.30;;;;;;5151005;23;20213;-82
2021/01/05 03:34:08;;;;;;;5.95;5.15;;;3.70;98.30;;;;;;5151288;23;20197;-81
2021/01/05 03:36:12;;;;;;;7.87;4.53;;;3.70;98.30;;;;;;5150266;23;20232;-82
2021/01/05 03:38:18;;;;;;;4.90;4.32;;;3.70;98.30;;;;;;5151125;23;20449;-82
2021/01/05 03:40:40;;;;;;;6.70;4.70;;;3.60;98.30;;;;;;5151940;23;20994;-82
2021/01/05 03:42:46;;;;;;;7.50;4.85;;;3.60;98.30;;;;;;5152031;23;20202;-82
2021/01/05 03:44:54;;;;;;;6.50;4.65;;;3.70;98.30;;;;;;5152740;23;20265;-82
2021/01/05 03:46:58;;;;;;;7.85;4.90;;;3.60;98.30;;;;;;5143992;23;20524;-82
2021/01/05 03:49:05;;;;;;;7.97;5.82;;;3.60;98.30;;;;;;5151491;23;20211;-81
2021/01/05 03:51:12;;;;;;;6.80;4.97;;;3.50;98.30;;;;;;5151480;23;20198;-82
2021/01/05 03:53:14;;;;;;;5.47;4.05;;;3.60;98.30;;;;;;5152149;23;20944;-82
2021/01/05 03:55:20;;;;;;;5.53;4.05;;;3.50;98.30;;;;;;5153472;23;20581;-82
2021/01/05 03:57:23;;;;;;;6.25;4.28;;;3.50;98.30;;;;;;5146699;23;20216;-82
2021/01/05 03:59:26;;;;;;;5.07;4.25;;;3.60;98.30;;;;;;5152893;23;20258;-82
2021/01/05 04:01:34;;;;;;;5.90;3.95;;;3.50;98.30;;;;;;5152285;23;20208;-82
2021/01/05 04:03:36;;;;;;;4.15;3.70;;;3.50;98.30;;;;;;5152508;23;20212;-82
2021/01/05 04:05:40;;;;;;;4.38;3.80;;;3.50;98.30;;;;;;5151291;23;20210;-82
2021/01/05 04:07:42;;;;;;;5.53;4.25;;;3.50;98.30;;;;;;5150387;23;20208;-83
2021/01/05 04:09:47;;;;;;;6.28;4.85;;;3.50;98.30;;;;;;5151277;23;20206;-83
2021/01/05 04:11:49;;;;;;;7.13;5.35;;;3.50;98.30;;;;;;5153456;23;20681;-82
2021/01/05 04:13:51;;;;;;;5.13;4.30;;;3.50;98.30;;;;;;5152638;23;20198;-82
2021/01/05 04:15:53;;;;;;;4.40;4.00;;;3.50;98.30;;;;;;5144630;23;20213;-82
2021/01/05 04:17:58;;;;;;;4.20;3.80;;;3.50;98.30;;;;;;5144365;23;20568;-82
2021/01/05 04:20:00;;;;;;;5.47;4.38;;;3.40;98.30;;;;;;5153327;23;20520;-82
2021/01/05 04:22:05;;;;;;;6.93;4.05;;;3.50;98.30;;;;;;5157718;23;20910;-82
2021/01/05 04:24:11;;;;;;;4.65;4.00;;;3.50;98.30;;;;;;5153587;23;20210;-82
2021/01/05 04:26:15;;;;;;;5.43;4.10;;;3.50;98.30;;;;;;5161772;23;20211;-82
2021/01/05 04:28:17;;;;;;;5.00;3.67;;;3.50;98.30;;;;;;5162529;23;20885;-82
2021/01/05 04:30:23;;;;;;;3.95;3.30;;;3.50;98.30;;;;;;5156867;23;20284;-82
2021/01/05 04:32:27;;;;;;;5.93;4.10;;;3.50;98.30;;;;;;5152571;23;20206;-82
2021/01/05 04:34:29;;;;;;;4.50;3.60;;;3.50;98.30;;;;;;5145037;23;20309;-82
2021/01/05 04:36:33;;;;;;;4.43;3.10;;;3.60;98.30;;;;;;5151650;23;22292;-82
2021/01/05 04:38:36;;;;;;;6.07;4.10;;;3.60;98.30;;;;;;5152702;23;20451;-82
2021/01/05 04:40:42;;;;;;;5.20;3.88;;;3.60;98.30;;;;;;5152822;23;20449;-82
2021/01/05 04:42:47;;;;;;;4.63;3.60;;;3.50;98.30;;;;;;5151697;23;20906;-82
2021/01/05 04:44:59;;;;;;;5.60;3.70;;;3.50;98.30;;;;;;5144034;23;20210;-82
2021/01/05 04:47:12;;;;;;;7.35;3.63;;;3.50;98.30;;;;;;5161984;23;20194;-82
2021/01/05 04:49:38;;;;;;;5.07;3.88;;;3.50;98.30;;;;;;5162726;23;20205;-83
2021/01/05 04:51:49;;;;;;;5.72;4.10;;;3.50;98.30;;;;;;5150685;23;20206;-82
2021/01/05 04:53:58;;;;;;;4.80;3.70;;;3.50;98.30;;;;;;5162448;23;20212;-82
2021/01/05 04:56:07;;;;;;;6.17;4.20;;;3.50;98.30;;;;;;5163067;23;20207;-82
2021/01/05 04:58:17;;;;;;;4.40;3.60;;;3.50;98.30;;;;;;5155268;23;20463;-82
2021/01/05 05:00:26;;;;;;;4.20;3.80;;;3.50;98.30;;;;;;5152028;23;20209;-82
2021/01/05 05:02:45;;;;;;;4.80;3.50;;;3.40;98.30;;;;;;5151411;23;20225;-83
2021/01/05 05:04:55;;;;;;;4.40;3.53;;;3.40;98.30;;;;;;5150694;23;20201;-82
2021/01/05 05:07:12;;;;;;;3.85;3.33;;;3.50;98.30;;;;;;5150990;23;20451;-82
2021/01/05 05:09:41;;;;;;;4.70;3.42;;;3.50;98.30;;;;;;5142070;23;20218;-82
2021/01/05 05:11:57;;;;;;;4.35;3.70;;;3.40;98.30;;;;;;5149779;23;20206;-82
2021/01/05 05:14:05;;;;;;;4.10;3.43;;;3.40;98.30;;;;;;5151076;23;20213;-82
2021/01/05 05:16:24;;;;;;;4.30;3.47;;;3.50;98.30;;;;;;5143046;23;20831;-82
2021/01/05 05:18:44;;;;;;;4.53;3.67;;;3.40;98.30;;;;;;5150407;23;20495;-82
2021/01/05 05:21:08;;;;;;;9.35;6.38;;;3.40;98.30;;;;;;5150196;23;20431;-82
2021/01/05 05:23:33;;;;;;;8.53;5.27;;;3.50;98.30;;;;;;5150766;23;20217;-81
2021/01/05 05:25:50;;;;;;;6.40;4.77;;;3.40;98.30;;;;;;5150797;23;20486;-81
2021/01/05 05:28:01;;;;;;;4.60;4.00;;;3.40;98.30;;;;;;5150295;23;20444;-82
2021/01/05 05:30:08;;;;;;;4.50;3.80;;;3.40;98.30;;;;;;5150311;23;20206;-82
2021/01/05 05:32:24;;;;;;;3.67;3.15;;;3.40;98.30;;;;;;5149715;23;20242;-82
2021/01/05 05:34:31;;;;;;;5.63;3.13;;;3.40;98.30;;;;;;5150201;23;20257;-82
2021/01/05 05:37:10;;;;;;;4.70;3.40;;;3.40;98.30;;;;;;5151964;23;20203;-81
2021/01/05 05:39:29;;;;;;;4.72;3.55;;;3.40;98.30;;;;;;5151126;23;20253;-82
2021/01/05 05:41:48;;;;;;;4.82;3.83;;;3.40;98.30;;;;;;5151643;23;20206;-82
2021/01/05 05:44:02;;;;;;;4.95;4.20;;;3.40;98.30;;;;;;5154618;23;20265;-82
2021/01/05 05:46:13;;;;;;;5.85;4.32;;;3.40;98.30;;;;;;5154109;23;20209;-82
2021/01/05 05:48:32;;;;;;;6.50;4.18;;;3.40;98.30;;;;;;5154276;23;20288;-82
2021/01/05 05:50:58;;;;;;;6.53;4.35;;;3.40;98.30;;;;;;5152732;23;20203;-82
2021/01/05 05:53:08;;;;;;;4.50;4.03;;;3.40;98.30;;;;;;5145179;23;20209;-82
2021/01/05 05:55:23;;;;;;;4.38;3.55;;;3.40;98.30;;;;;;5153792;23;20267;-82
2021/01/05 05:57:47;;;;;;;4.63;4.15;;;3.40;98.30;;;;;;5154941;23;20244;-82
2021/01/05 05:59:55;;;;;;;6.03;4.80;;;3.40;98.30;;;;;;5155833;23;20248;-82
2021/01/05 06:01:57;;;;;;;3.45;3.13;;;3.40;98.30;;;;;;5154285;23;20663;-82
2021/01/05 06:04:00;;;;;;;4.38;3.90;;;3.30;98.30;;;;;;5148195;23;20236;-82
2021/01/05 06:06:07;;;;;;;6.23;4.43;;;3.40;98.30;;;;;;5154699;23;20228;-82
2021/01/05 06:08:22;;;;;;;4.25;3.58;;;3.40;98.30;;;;;;5146418;23;20464;-82
2021/01/05 06:10:30;;;;;;;4.25;3.85;;;3.40;98.30;;;;;;5154722;23;20284;-81
2021/01/05 06:12:38;;;;;;;4.40;3.90;;;3.30;98.30;;;;;;5152810;23;20217;-81
2021/01/05 06:14:42;;;;;;;6.40;4.97;;;3.30;98.30;;;;;;5152803;23;20198;-81
2021/01/05 06:16:46;;;;;;;6.60;4.63;;;3.40;98.30;;;;;;5153388;23;20331;-82
2021/01/05 06:18:48;;;;;;;5.70;4.03;;;3.40;98.30;;;;;;5155099;23;20194;-82
2021/01/05 06:20:55;;;;;;;6.88;4.50;;;3.30;98.30;;;;;;5156493;23;20225;-82
2021/01/05 06:23:18;;;;;;;5.30;3.83;;;3.40;98.30;;;;;;5155456;23;20205;-82
2021/01/05 06:25:20;;;;;;;6.28;4.30;;;3.40;98.30;;;;;;5153519;23;20933;-81
2021/01/05 06:27:22;;;;;;;9.13;4.90;;;3.40;98.30;;;;;;5152959;23;20791;-82
2021/01/05 06:29:42;;;;;;;5.57;4.15;;;3.40;98.30;;;;;;5152855;23;20210;-82
2021/01/05 06:31:45;;;;;;;6.57;4.18;;;3.50;98.30;;;;;;5152990;23;20201;-82
2021/01/05 06:33:53;;;;;;;5.85;4.03;;;3.40;98.30;;;;;;5152517;23;20209;-81
2021/01/05 06:36:00;;;;;;;6.13;4.47;;;3.40;98.30;;;;;;5152494;23;20198;-81
2021/01/05 06:38:03;;;;;;;7.03;5.00;;;3.40;98.30;;;;;;5151849;23;20218;-81
2021/01/05 06:40:09;;;;;;;5.30;4.70;;;3.40;98.30;;;;;;5151251;23;20208;-81
2021/01/05 06:42:12;;;;;;;5.05;4.30;;;3.40;98.30;;;;;;5151039;23;20205;-82
2021/01/05 06:44:14;;;;;;;8.35;5.00;;;3.40;98.30;;;;;;5151310;23;20242;-82
2021/01/05 06:46:55;;;;;;;6.45;4.50;;;3.40;98.30;;;;;;5152079;23;20233;-82
2021/01/05 06:55:16;;;;;;;7.07;5.93;;;3.50;98.30;;;;;;5120834;23;20206;-82
2021/01/05 06:57:23;;;;;;;7.30;6.15;;;3.50;98.30;;;;;;5151295;23;20288;-82
2021/01/05 06:59:26;;;;;;;9.15;5.80;;;3.50;98.30;;;;;;5151328;23;20206;-82
2021/01/05 07:01:28;;;;;;;7.05;5.43;;;3.50;98.30;;;;;;5151078;23;20533;-82
2021/01/05 07:03:41;;;;;;;6.70;5.55;;;3.50;98.30;;;;;;5151776;23;20212;-82
2021/01/05 07:06:03;;;;;;;7.10;5.22;;;3.50;98.30;;;;;;5151786;23;20225;-82
2021/01/05 07:08:10;;;;;;;11.27;6.20;;;3.50;98.30;;;;;;5151285;23;20228;-82
2021/01/05 07:10:20;;;;;;;6.32;5.10;;;3.60;98.30;;;;;;5152235;23;20202;-82
2021/01/05 07:12:26;;;;;;;6.10;5.15;;;3.60;98.30;;;;;;5152275;23;20289;-82
2021/01/05 07:14:30;;;;;;;5.95;5.32;;;3.60;98.30;;;;;;5151691;23;20537;-81
2021/01/05 07:16:32;;;;;;;8.32;5.55;;;3.60;98.30;;;;;;5151600;23;20198;-81
2021/01/05 07:18:36;;;;;;;7.65;6.90;;;3.70;98.30;;;;;;5142889;23;20206;-81
2021/01/05 07:20:41;;;;;;;9.15;6.40;;;3.60;98.30;;;;;;5152235;23;20713;-81
2021/01/05 07:22:50;;;;;;;8.65;6.75;;;3.70;98.30;;;;;;5154833;23;20206;-81
2021/01/05 07:24:52;;;;;;;9.15;6.95;;;3.70;98.30;;;;;;5165374;23;20206;-82
2021/01/05 07:26:59;;;;;;;8.02;6.97;;;3.80;98.30;;;;;;5163169;23;20222;-82
2021/01/05 07:29:06;;;;;;;7.55;6.68;;;3.70;98.30;;;;;;5162114;23;20252;-82
2021/01/05 07:33:54;;;;;;;8.18;7.32;;;3.80;98.30;;;;;;5152806;23;20233;-81
2021/01/05 07:36:07;;;;;;;10.27;8.13;;;3.90;98.30;;;;;;5164352;23;20205;-82
2021/01/05 07:38:14;;;;;;;8.13;7.13;;;3.90;98.30;;;;;;5148502;23;20221;-82
2021/01/05 07:40:25;;;;;;;9.18;6.97;;;3.90;98.30;;;;;;5152804;23;20201;-81
2021/01/05 07:42:30;;;;;;;7.80;6.43;;;3.90;98.30;;;;;;5150932;23;20201;-82
2021/01/05 07:44:32;;;;;;;13.18;7.35;;;3.80;98.30;;;;;;5151271;23;20207;-82
2021/01/05 07:46:34;;;;;;;8.65;6.43;;;3.90;98.30;;;;;;5142836;23;20213;-82
2021/01/05 07:48:36;;;;;;;8.15;6.72;;;4.00;98.30;;;;;;5150440;23;20201;-82
2021/01/05 07:50:38;;;;;;;8.00;6.82;;;3.90;98.30;;;;;;5150819;23;20204;-81
2021/01/05 07:55:34;;;;;;;8.68;7.05;;;4.00;98.30;;;;;;5121964;23;20202;-82
2021/01/05 07:59:46;;;;;;;7.38;6.45;;;3.80;98.30;;;;;;5096713;22;20216;-83
2021/01/05 08:01:48;;;;;;;10.02;7.22;;;3.80;98.30;;;;;;5130896;23;20199;-81
2021/01/05 08:03:50;;;;;;;11.00;6.57;;;3.90;98.30;;;;;;5128744;23;20202;-82
2021/01/05 08:05:52;;;;;;;8.90;7.07;;;3.90;98.30;;;;;;5128507;23;20241;-82
2021/01/05 08:07:55;;;;;;;8.98;6.97;;;3.90;98.30;;;;;;5113746;23;20200;-83
2021/01/05 08:09:58;;;;;;;9.77;7.47;;;3.90;98.30;;;;;;5104310;23;20227;-82
2021/01/05 08:12:00;;;;;;;9.48;7.20;;;3.80;98.30;;;;;;5104193;23;20223;-81
2021/01/05 08:14:05;;;;;;;7.53;6.72;;;3.90;98.30;;;;;;5103703;23;20226;-82
2021/01/05 08:16:07;;;;;;;9.07;6.27;;;3.90;98.30;;;;;;5104669;23;20238;-82
2021/01/05 08:18:13;;;;;;;8.57;7.18;;;3.90;98.30;;;;;;5103573;23;20456;-83
2021/01/05 08:20:17;;;;;;;10.73;6.78;;;3.90;98.30;;;;;;5103406;23;20205;-82
2021/01/05 08:22:19;;;;;;;9.48;6.20;;;3.90;98.30;;;;;;5102973;23;20219;-81
2021/01/05 08:24:21;;;;;;;8.50;6.18;;;3.90;98.30;;;;;;5103905;23;20210;-82
2021/01/05 08:26:23;;;;;;;14.02;6.70;;;3.90;98.30;;;;;;5103725;23;20277;-82
2021/01/05 08:28:26;;;;;;;9.32;7.38;;;3.90;98.30;;;;;;5103794;23;20202;-82
2021/01/05 08:30:30;;;;;;;8.60;6.65;;;3.90;98.30;;;;;;5104365;23;20295;-82
2021/01/05 08:32:32;;;;;;;9.30;6.80;;;3.90;98.30;;;;;;5104137;23;20204;-81
2021/01/05 08:34:34;;;;;;;21.58;14.05;;;3.90;98.30;;;;;;5104628;23;20529;-83
2021/01/05 08:36:37;;;;;;;19.73;11.68;;;3.90;98.30;;;;;;5103912;23;20534;-85
2021/01/05 08:38:39;;;;;;;19.60;12.43;;;3.90;98.30;;;;;;5104096;23;20213;-82
2021/01/05 08:40:41;;;;;;;11.80;7.75;;;4.00;98.30;;;;;;5104160;23;20293;-82
2021/01/05 08:42:43;;;;;;;10.20;7.90;;;4.00;98.30;;;;;;5104005;23;20229;-82
2021/01/05 08:44:46;;;;;;;11.85;6.95;;;4.00;98.30;;;;;;5104350;23;20199;-81
2021/01/05 08:46:48;;;;;;;15.50;8.27;;;4.00;98.30;;;;;;5104476;23;20693;-82
2021/01/05 08:48:50;;;;;;;12.73;7.43;;;4.00;98.30;;;;;;5104221;23;20234;-82
2021/01/05 08:50:52;;;;;;;11.10;8.35;;;4.10;98.30;;;;;;5104222;23;20210;-81
2021/01/05 08:52:55;;;;;;;9.50;6.53;;;4.10;98.30;;;;;;5103879;23;20211;-81
2021/01/05 08:54:58;;;;;;;10.02;6.70;;;4.10;98.30;;;;;;5104309;23;20512;-82
2021/01/05 08:57:00;;;;;;;11.63;7.75;;;4.10;98.30;;;;;;5104972;23;20200;-82
2021/01/05 08:59:02;;;;;;;10.35;7.18;;;4.20;98.30;;;;;;5105608;23;20674;-82
2021/01/05 09:01:06;;;;;;;14.73;8.32;;;4.20;98.30;;;;;;5105346;23;20215;-83
2021/01/05 09:03:09;;;;;;;16.45;11.10;;;4.30;98.30;;;;;;5108556;23;20286;-84
2021/01/05 09:05:19;;;;;;;12.40;7.90;;;4.40;98.30;;;;;;5106372;23;20665;-82
2021/01/05 09:07:21;;;;;;;10.75;8.80;;;4.40;98.30;;;;;;5105227;23;20241;-82
2021/01/05 09:09:23;;;;;;;8.43;6.30;;;4.40;98.30;;;;;;5104819;23;20280;-82
2021/01/05 09:11:27;;;;;;;8.00;6.40;;;4.40;98.30;;;;;;5103879;23;20213;-83
2021/01/05 09:13:29;;;;;;;11.55;6.95;;;4.40;98.30;;;;;;5104937;23;20451;-84
2021/01/05 09:15:31;;;;;;;11.67;7.40;;;4.30;98.30;;;;;;5104577;23;20203;-82
2021/01/05 09:17:34;;;;;;;24.87;15.73;;;4.30;98.30;;;;;;5104051;23;21018;-82
2021/01/05 09:19:39;;;;;;;11.97;7.10;;;4.30;98.30;;;;;;5104849;23;20443;-82
2021/01/05 09:21:46;;;;;;;13.23;7.38;;;4.30;98.30;;;;;;5104660;23;20478;-82
2021/01/05 09:23:48;;;;;;;8.65;6.68;;;4.30;98.30;;;;;;5104131;23;20283;-82
2021/01/05 09:25:52;;;;;;;8.45;7.25;;;4.30;98.30;;;;;;5104274;23;20205;-82
2021/01/05 09:27:54;;;;;;;9.00;6.90;;;4.30;98.30;;;;;;5102768;23;20238;-83
2021/01/05 09:29:56;;;;;;;8.13;6.00;;;4.30;98.30;;;;;;5094815;23;20436;-82
2021/01/05 09:31:58;;;;;;;9.07;5.72;;;4.30;98.30;;;;;;5102536;23;20210;-82
2021/01/05 09:34:03;;;;;;;10.20;6.60;;;4.30;98.30;;;;;;5102781;23;20530;-82
2021/01/05 09:36:06;;;;;;;9.20;5.93;;;4.40;98.30;;;;;;5102133;23;20199;-82
2021/01/05 09:38:09;;;;;;;9.83;6.40;;;4.40;98.30;;;;;;5102382;23;20272;-83
2021/01/05 09:40:12;;;;;;;8.15;5.55;;;4.30;98.30;;;;;;5103124;23;20462;-81
2021/01/05 09:42:14;;;;;;;7.85;6.32;;;4.40;98.30;;;;;;5102791;23;20604;-82
2021/01/05 09:44:17;;;;;;;8.77;5.55;;;4.40;98.30;;;;;;5102208;23;20278;-82
2021/01/05 09:46:20;;;;;;;13.52;9.50;;;4.50;98.30;;;;;;5103071;23;20330;-82
2021/01/05 09:48:22;;;;;;;14.25;8.63;;;4.40;98.30;;;;;;5102435;23;20284;-82
2021/01/05 09:50:25;;;;;;;15.73;7.00;;;4.40;98.30;;;;;;5103121;23;20203;-83
2021/01/05 09:52:27;;;;;;;8.00;6.00;;;4.40;98.30;;;;;;5102982;23;20228;-82
2021/01/05 09:54:33;;;;;;;5.95;4.85;;;4.40;98.30;;;;;;5103667;23;20481;-82
2021/01/05 09:56:35;;;;;;;6.90;5.32;;;4.40;98.30;;;;;;5102505;23;20546;-83
2021/01/05 09:58:37;;;;;;;6.93;5.43;;;4.40;98.30;;;;;;5102281;23;20615;-82
2021/01/05 10:00:39;;;;;;;6.73;5.43;;;4.40;98.30;;;;;;5102752;23;20238;-82
2021/01/05 10:02:41;;;;;;;7.57;5.60;;;4.40;98.30;;;;;;5102516;23;20545;-81
2021/01/05 10:04:46;;;;;;;6.37;4.73;;;4.40;98.30;;;;;;5101134;23;20769;-82
2021/01/05 10:06:51;;;;;;;8.23;5.40;;;4.40;98.30;;;;;;5104058;23;20451;-82
2021/01/05 10:08:54;;;;;;;8.47;5.70;;;4.40;98.30;;;;;;5095531;23;20483;-81
2021/01/05 10:10:56;;;;;;;5.83;5.00;;;4.30;98.30;;;;;;5103560;23;20427;-81
2021/01/05 10:12:59;;;;;;;8.57;5.80;;;4.40;98.30;;;;;;5101872;23;20542;-81
2021/01/05 10:15:02;;;;;;;8.47;5.03;;;4.40;98.30;;;;;;5101825;23;20457;-81
2021/01/05 10:17:04;;;;;;;8.30;5.47;;;4.40;98.30;;;;;;5103110;23;20781;-81
2021/01/05 10:19:06;;;;;;;8.83;5.30;;;4.30;98.30;;;;;;5102540;23;20542;-81
2021/01/05 10:21:08;;;;;;;8.80;6.00;;;4.40;98.30;;;;;;5102629;23;20451;-83
2021/01/05 10:23:11;;;;;;;8.10;5.23;;;4.40;98.30;;;;;;5103275;23;20466;-82
2021/01/05 10:25:14;;;;;;;6.30;5.10;;;4.40;98.30;;;;;;5103945;23;20931;-82
2021/01/05 10:27:16;;;;;;;4.67;4.10;;;4.40;98.30;;;;;;5102665;23;20452;-81
2021/01/05 10:29:18;;;;;;;7.27;4.90;;;4.40;98.30;;;;;;5102672;23;20464;-81
2021/01/05 10:31:20;;;;;;;8.03;6.23;;;4.40;98.30;;;;;;5103035;23;20446;-81
2021/01/05 10:33:22;;;;;;;7.47;5.43;;;4.30;98.30;;;;;;5102642;23;20453;-81
2021/01/05 10:35:24;;;;;;;9.53;5.10;;;4.30;98.30;;;;;;5102823;23;20946;-81
2021/01/05 10:37:26;;;;;;;6.37;4.53;;;4.30;98.30;;;;;;5094489;23;20513;-81
2021/01/05 10:39:40;;;;;;;5.50;4.50;;;4.30;98.30;;;;;;5103276;23;20942;-82
2021/01/05 10:41:45;;;;;;;8.07;5.40;;;4.30;98.30;;;;;;5103884;23;20425;-81
2021/01/05 10:43:47;;;;;;;5.63;4.43;;;4.30;98.30;;;;;;5105179;23;21184;-81
2021/01/05 10:45:49;;;;;;;6.63;4.63;;;4.30;98.30;;;;;;5105174;23;20821;-81
2021/01/05 10:47:52;;;;;;;6.57;4.73;;;4.30;98.30;;;;;;5105034;23;20455;-82
2021/01/05 10:49:54;;;;;;;7.10;5.67;;;4.30;98.30;;;;;;5103280;23;20449;-81
2021/01/05 10:51:58;;;;;;;6.77;5.10;;;4.30;98.30;;;;;;5103838;23;20452;-81
2021/01/05 10:54:02;;;;;;;9.47;6.30;;;4.30;98.30;;;;;;5103483;23;20482;-82
2021/01/05 10:56:05;;;;;;;5.53;4.90;;;4.30;98.30;;;;;;5103944;23;20452;-81
2021/01/05 10:58:07;;;;;;;6.30;5.10;;;4.30;98.30;;;;;;5103551;23;20456;-81
2021/01/05 11:00:11;;;;;;;6.97;5.10;;;4.30;98.30;;;;;;5104046;23;20460;-82
2021/01/05 11:02:13;;;;;;;6.80;5.40;;;4.40;98.30;;;;;;5104597;23;21174;-82
2021/01/05 11:04:15;;;;;;;6.40;4.60;;;4.40;98.30;;;;;;5103590;23;20449;-81
2021/01/05 11:06:17;;;;;;;5.73;5.03;;;4.40;98.30;;;;;;5103673;23;20511;-82
2021/01/05 11:08:19;;;;;;;11.90;6.20;;;4.40;98.30;;;;;;5103932;23;20428;-82
2021/01/05 11:10:22;;;;;;;6.27;5.10;;;4.40;98.30;;;;;;5104168;23;20427;-81
2021/01/05 11:12:26;;;;;;;9.83;5.80;;;4.40;98.30;;;;;;5103676;23;20457;-81
2021/01/05 11:14:28;;;;;;;6.90;5.60;;;4.50;98.30;;;;;;5104041;23;20951;-81
2021/01/05 11:16:30;;;;;;;6.70;4.77;;;4.50;98.30;;;;;;5102565;23;20461;-81
2021/01/05 11:18:32;;;;;;;10.47;4.90;;;4.50;98.30;;;;;;5102471;23;20535;-82
2021/01/05 11:20:34;;;;;;;6.30;4.80;;;4.50;98.30;;;;;;5103825;23;20456;-82
2021/01/05 11:22:36;;;;;;;5.50;4.40;;;4.50;98.30;;;;;;5103836;23;20456;-82
2021/01/05 11:24:38;;;;;;;5.63;4.40;;;4.40;98.30;;;;;;5103864;23;20504;-82
2021/01/05 11:26:40;;;;;;;5.70;3.60;;;4.40;98.30;;;;;;5103862;23;20457;-82
2021/01/05 11:28:43;;;;;;;6.03;4.03;;;4.30;98.30;;;;;;5104202;23;20454;-82